sensor_id;sensor_type;location;lat;lon;timestamp;P1;durP1;ratioP1;P2;durP2;ratioP2
13238;SDS011;6686;51.292;4.166;2023-04-24T00:00:33;41.77;;;26.07;;
13238;SDS011;6686;51.292;4.166;2023-04-24T00:03:19;32.90;;;24.10;;
13238;SDS011;6686;51.292;4.166;2023-04-24T00:06:05;26.60;;;19.73;;
13238;SDS011;6686;51.292;4.166;2023-04-24T00:08:51;24.17;;;18.17;;
13238;SDS011;6686;51.292;4.166;2023-04-24T00:11:37;20.65;;;18.27;;
13238;SDS011;6686;51.292;4.166;2023-04-24T00:14:24;16.20;;;14.50;;
13238;SDS011;6686;51.292;4.166;2023-04-24T00:17:10;13.03;;;11.13;;
13238;SDS011;6686;51.292;4.166;2023-04-24T00:19:55;15.77;;;11.27;;
13238;SDS011;6686;51.292;4.166;2023-04-24T00:22:41;16.27;;;11.93;;
13238;SDS011;6686;51.292;4.166;2023-04-24T00:25:27;13.10;;;10.13;;
13238;SDS011;6686;51.292;4.166;2023-04-24T00:28:14;14.40;;;11.32;;
13238;SDS011;6686;51.292;4.166;2023-04-24T00:30:59;13.57;;;10.33;;
13238;SDS011;6686;51.292;4.166;2023-04-24T00:33:46;11.50;;;9.03;;
13238;SDS011;6686;51.292;4.166;2023-04-24T00:36:31;12.10;;;8.50;;
13238;SDS011;6686;51.292;4.166;2023-04-24T00:39:18;10.13;;;7.83;;
13238;SDS011;6686;51.292;4.166;2023-04-24T00:42:03;10.50;;;7.50;;
13238;SDS011;6686;51.292;4.166;2023-04-24T00:44:49;10.35;;;8.25;;
13238;SDS011;6686;51.292;4.166;2023-04-24T00:47:35;8.03;;;7.03;;
13238;SDS011;6686;51.292;4.166;2023-04-24T00:50:21;13.33;;;7.27;;
13238;SDS011;6686;51.292;4.166;2023-04-24T00:53:07;11.93;;;8.13;;
13238;SDS011;6686;51.292;4.166;2023-04-24T00:55:52;7.37;;;6.23;;
13238;SDS011;6686;51.292;4.166;2023-04-24T00:58:38;7.30;;;5.97;;
13238;SDS011;6686;51.292;4.166;2023-04-24T01:01:24;10.23;;;5.90;;
13238;SDS011;6686;51.292;4.166;2023-04-24T01:04:11;8.80;;;5.83;;
13238;SDS011;6686;51.292;4.166;2023-04-24T01:06:56;9.57;;;6.50;;
13238;SDS011;6686;51.292;4.166;2023-04-24T01:09:42;11.33;;;8.13;;
13238;SDS011;6686;51.292;4.166;2023-04-24T01:12:28;17.77;;;11.37;;
13238;SDS011;6686;51.292;4.166;2023-04-24T01:15:14;27.67;;;15.00;;
13238;SDS011;6686;51.292;4.166;2023-04-24T01:18:00;34.17;;;18.77;;
13238;SDS011;6686;51.292;4.166;2023-04-24T01:20:45;42.47;;;25.23;;
13238;SDS011;6686;51.292;4.166;2023-04-24T01:23:31;41.10;;;23.43;;
13238;SDS011;6686;51.292;4.166;2023-04-24T01:26:17;40.00;;;22.57;;
13238;SDS011;6686;51.292;4.166;2023-04-24T01:29:03;37.77;;;21.33;;
13238;SDS011;6686;51.292;4.166;2023-04-24T01:31:50;30.37;;;18.73;;
13238;SDS011;6686;51.292;4.166;2023-04-24T01:34:36;29.47;;;18.07;;
13238;SDS011;6686;51.292;4.166;2023-04-24T01:37:21;30.40;;;21.52;;
13238;SDS011;6686;51.292;4.166;2023-04-24T01:40:08;36.30;;;21.70;;
13238;SDS011;6686;51.292;4.166;2023-04-24T01:42:54;29.27;;;19.00;;
13238;SDS011;6686;51.292;4.166;2023-04-24T01:45:39;30.33;;;17.23;;
13238;SDS011;6686;51.292;4.166;2023-04-24T01:48:25;27.93;;;19.03;;
13238;SDS011;6686;51.292;4.166;2023-04-24T01:51:12;24.87;;;16.10;;
13238;SDS011;6686;51.292;4.166;2023-04-24T01:53:58;27.63;;;19.03;;
13238;SDS011;6686;51.292;4.166;2023-04-24T01:56:44;31.53;;;19.43;;
13238;SDS011;6686;51.292;4.166;2023-04-24T01:59:30;26.83;;;17.00;;
13238;SDS011;6686;51.292;4.166;2023-04-24T02:02:16;28.73;;;20.73;;
13238;SDS011;6686;51.292;4.166;2023-04-24T02:05:02;36.27;;;24.27;;
13238;SDS011;6686;51.292;4.166;2023-04-24T02:07:48;40.20;;;25.63;;
13238;SDS011;6686;51.292;4.166;2023-04-24T02:10:34;36.23;;;23.93;;
13238;SDS011;6686;51.292;4.166;2023-04-24T02:13:20;33.37;;;23.57;;
13238;SDS011;6686;51.292;4.166;2023-04-24T02:16:06;41.28;;;31.33;;
13238;SDS011;6686;51.292;4.166;2023-04-24T02:18:51;41.10;;;28.43;;
13238;SDS011;6686;51.292;4.166;2023-04-24T02:21:38;44.70;;;28.97;;
13238;SDS011;6686;51.292;4.166;2023-04-24T02:24:23;35.50;;;24.70;;
13238;SDS011;6686;51.292;4.166;2023-04-24T02:27:09;28.67;;;20.87;;
13238;SDS011;6686;51.292;4.166;2023-04-24T02:29:56;21.43;;;16.07;;
13238;SDS011;6686;51.292;4.166;2023-04-24T02:32:41;19.90;;;14.87;;
13238;SDS011;6686;51.292;4.166;2023-04-24T02:35:27;18.77;;;16.23;;
13238;SDS011;6686;51.292;4.166;2023-04-24T02:38:13;17.50;;;14.77;;
13238;SDS011;6686;51.292;4.166;2023-04-24T02:40:59;16.27;;;13.57;;
13238;SDS011;6686;51.292;4.166;2023-04-24T02:43:45;17.10;;;12.00;;
13238;SDS011;6686;51.292;4.166;2023-04-24T02:46:30;13.40;;;10.90;;
13238;SDS011;6686;51.292;4.166;2023-04-24T02:49:16;16.17;;;10.23;;
13238;SDS011;6686;51.292;4.166;2023-04-24T02:52:02;15.37;;;10.53;;
13238;SDS011;6686;51.292;4.166;2023-04-24T02:54:48;16.07;;;10.47;;
13238;SDS011;6686;51.292;4.166;2023-04-24T02:57:34;16.53;;;10.10;;
13238;SDS011;6686;51.292;4.166;2023-04-24T03:00:19;14.23;;;10.37;;
13238;SDS011;6686;51.292;4.166;2023-04-24T03:03:05;13.33;;;6.37;;
13238;SDS011;6686;51.292;4.166;2023-04-24T03:05:51;9.17;;;5.43;;
13238;SDS011;6686;51.292;4.166;2023-04-24T03:08:37;6.70;;;4.93;;
13238;SDS011;6686;51.292;4.166;2023-04-24T03:11:23;8.63;;;4.67;;
13238;SDS011;6686;51.292;4.166;2023-04-24T03:14:09;6.83;;;4.00;;
13238;SDS011;6686;51.292;4.166;2023-04-24T03:16:55;10.13;;;4.33;;
13238;SDS011;6686;51.292;4.166;2023-04-24T03:19:41;9.97;;;4.70;;
13238;SDS011;6686;51.292;4.166;2023-04-24T03:22:27;8.18;;;5.45;;
13238;SDS011;6686;51.292;4.166;2023-04-24T03:25:13;8.90;;;5.20;;
13238;SDS011;6686;51.292;4.166;2023-04-24T03:27:59;10.27;;;4.93;;
13238;SDS011;6686;51.292;4.166;2023-04-24T03:30:44;6.17;;;5.17;;
13238;SDS011;6686;51.292;4.166;2023-04-24T03:33:30;9.63;;;4.80;;
13238;SDS011;6686;51.292;4.166;2023-04-24T03:36:16;9.37;;;5.47;;
13238;SDS011;6686;51.292;4.166;2023-04-24T03:39:03;9.73;;;5.03;;
13238;SDS011;6686;51.292;4.166;2023-04-24T03:41:48;10.63;;;5.30;;
13238;SDS011;6686;51.292;4.166;2023-04-24T03:44:34;8.70;;;5.50;;
13238;SDS011;6686;51.292;4.166;2023-04-24T03:47:20;10.80;;;5.63;;
13238;SDS011;6686;51.292;4.166;2023-04-24T03:50:06;12.40;;;5.27;;
13238;SDS011;6686;51.292;4.166;2023-04-24T03:52:52;7.77;;;5.63;;
13238;SDS011;6686;51.292;4.166;2023-04-24T03:55:37;9.47;;;5.30;;
13238;SDS011;6686;51.292;4.166;2023-04-24T03:58:23;9.67;;;6.37;;
13238;SDS011;6686;51.292;4.166;2023-04-24T04:01:10;6.97;;;5.27;;
13238;SDS011;6686;51.292;4.166;2023-04-24T04:03:56;8.47;;;5.50;;
13238;SDS011;6686;51.292;4.166;2023-04-24T04:06:42;12.47;;;5.97;;
13238;SDS011;6686;51.292;4.166;2023-04-24T04:09:28;9.53;;;5.70;;
13238;SDS011;6686;51.292;4.166;2023-04-24T04:12:14;15.00;;;6.77;;
13238;SDS011;6686;51.292;4.166;2023-04-24T04:15:00;10.03;;;7.13;;
13238;SDS011;6686;51.292;4.166;2023-04-24T04:17:46;8.07;;;7.20;;
13238;SDS011;6686;51.292;4.166;2023-04-24T04:20:32;10.47;;;7.67;;
13238;SDS011;6686;51.292;4.166;2023-04-24T04:23:17;13.50;;;9.35;;
13238;SDS011;6686;51.292;4.166;2023-04-24T04:26:03;14.25;;;10.35;;
13238;SDS011;6686;51.292;4.166;2023-04-24T04:28:49;12.57;;;8.77;;
13238;SDS011;6686;51.292;4.166;2023-04-24T04:31:35;14.73;;;9.37;;
13238;SDS011;6686;51.292;4.166;2023-04-24T04:34:21;14.77;;;10.10;;
13238;SDS011;6686;51.292;4.166;2023-04-24T04:37:07;15.17;;;10.60;;
13238;SDS011;6686;51.292;4.166;2023-04-24T04:39:53;15.77;;;11.33;;
13238;SDS011;6686;51.292;4.166;2023-04-24T04:42:39;17.67;;;12.13;;
13238;SDS011;6686;51.292;4.166;2023-04-24T04:45:25;18.37;;;11.17;;
13238;SDS011;6686;51.292;4.166;2023-04-24T04:48:11;16.00;;;10.50;;
13238;SDS011;6686;51.292;4.166;2023-04-24T04:50:57;15.53;;;10.73;;
13238;SDS011;6686;51.292;4.166;2023-04-24T04:53:43;21.93;;;10.97;;
13238;SDS011;6686;51.292;4.166;2023-04-24T04:56:29;16.80;;;10.20;;
13238;SDS011;6686;51.292;4.166;2023-04-24T04:59:14;15.90;;;10.60;;
13238;SDS011;6686;51.292;4.166;2023-04-24T05:02:01;15.93;;;9.87;;
13238;SDS011;6686;51.292;4.166;2023-04-24T05:04:46;16.80;;;11.50;;
13238;SDS011;6686;51.292;4.166;2023-04-24T05:07:33;11.57;;;8.50;;
13238;SDS011;6686;51.292;4.166;2023-04-24T05:10:19;12.00;;;8.73;;
13238;SDS011;6686;51.292;4.166;2023-04-24T05:13:05;13.63;;;7.67;;
13238;SDS011;6686;51.292;4.166;2023-04-24T05:15:51;13.77;;;7.90;;
13238;SDS011;6686;51.292;4.166;2023-04-24T05:18:37;13.53;;;7.70;;
13238;SDS011;6686;51.292;4.166;2023-04-24T05:21:23;11.53;;;8.13;;
13238;SDS011;6686;51.292;4.166;2023-04-24T05:24:09;14.43;;;8.30;;
13238;SDS011;6686;51.292;4.166;2023-04-24T05:26:56;11.80;;;8.80;;
13238;SDS011;6686;51.292;4.166;2023-04-24T05:29:41;13.23;;;8.47;;
13238;SDS011;6686;51.292;4.166;2023-04-24T05:32:27;13.03;;;8.57;;
13238;SDS011;6686;51.292;4.166;2023-04-24T05:35:13;13.67;;;9.43;;
13238;SDS011;6686;51.292;4.166;2023-04-24T05:37:59;14.13;;;9.37;;
13238;SDS011;6686;51.292;4.166;2023-04-24T05:40:45;11.77;;;9.53;;
13238;SDS011;6686;51.292;4.166;2023-04-24T05:43:31;15.73;;;10.23;;
13238;SDS011;6686;51.292;4.166;2023-04-24T05:46:17;15.80;;;9.60;;
13238;SDS011;6686;51.292;4.166;2023-04-24T05:49:03;18.87;;;9.87;;
13238;SDS011;6686;51.292;4.166;2023-04-24T05:51:49;18.60;;;9.77;;
13238;SDS011;6686;51.292;4.166;2023-04-24T05:54:34;12.93;;;9.77;;
13238;SDS011;6686;51.292;4.166;2023-04-24T05:57:20;16.10;;;10.10;;
13238;SDS011;6686;51.292;4.166;2023-04-24T06:00:06;19.40;;;9.80;;
13238;SDS011;6686;51.292;4.166;2023-04-24T06:02:52;17.60;;;10.20;;
13238;SDS011;6686;51.292;4.166;2023-04-24T06:05:39;12.67;;;8.83;;
13238;SDS011;6686;51.292;4.166;2023-04-24T06:08:25;12.00;;;8.50;;
13238;SDS011;6686;51.292;4.166;2023-04-24T06:11:11;14.80;;;8.97;;
13238;SDS011;6686;51.292;4.166;2023-04-24T06:13:56;20.73;;;9.27;;
13238;SDS011;6686;51.292;4.166;2023-04-24T06:16:42;10.23;;;7.63;;
13238;SDS011;6686;51.292;4.166;2023-04-24T06:19:28;16.37;;;8.17;;
13238;SDS011;6686;51.292;4.166;2023-04-24T06:22:14;17.53;;;8.13;;
13238;SDS011;6686;51.292;4.166;2023-04-24T06:24:59;11.37;;;7.53;;
13238;SDS011;6686;51.292;4.166;2023-04-24T06:27:45;13.93;;;7.37;;
13238;SDS011;6686;51.292;4.166;2023-04-24T06:30:31;16.63;;;6.60;;
13238;SDS011;6686;51.292;4.166;2023-04-24T06:33:17;17.40;;;7.03;;
13238;SDS011;6686;51.292;4.166;2023-04-24T06:36:04;14.17;;;6.70;;
13238;SDS011;6686;51.292;4.166;2023-04-24T06:38:50;14.47;;;7.07;;
13238;SDS011;6686;51.292;4.166;2023-04-24T06:41:36;17.50;;;6.53;;
13238;SDS011;6686;51.292;4.166;2023-04-24T06:44:22;14.97;;;6.63;;
13238;SDS011;6686;51.292;4.166;2023-04-24T06:47:08;10.70;;;6.03;;
13238;SDS011;6686;51.292;4.166;2023-04-24T06:49:53;12.53;;;6.07;;
13238;SDS011;6686;51.292;4.166;2023-04-24T06:52:40;10.00;;;5.23;;
13238;SDS011;6686;51.292;4.166;2023-04-24T06:55:25;11.23;;;5.27;;
13238;SDS011;6686;51.292;4.166;2023-04-24T06:58:11;9.30;;;4.83;;
13238;SDS011;6686;51.292;4.166;2023-04-24T07:00:58;9.23;;;4.17;;
13238;SDS011;6686;51.292;4.166;2023-04-24T07:03:44;6.63;;;4.10;;
13238;SDS011;6686;51.292;4.166;2023-04-24T07:06:29;9.40;;;4.73;;
13238;SDS011;6686;51.292;4.166;2023-04-24T07:09:16;6.77;;;3.93;;
13238;SDS011;6686;51.292;4.166;2023-04-24T07:12:02;6.50;;;4.00;;
13238;SDS011;6686;51.292;4.166;2023-04-24T07:14:47;7.83;;;4.17;;
13238;SDS011;6686;51.292;4.166;2023-04-24T07:17:33;7.80;;;4.00;;
13238;SDS011;6686;51.292;4.166;2023-04-24T07:20:20;11.77;;;4.45;;
13238;SDS011;6686;51.292;4.166;2023-04-24T07:23:05;8.77;;;3.93;;
13238;SDS011;6686;51.292;4.166;2023-04-24T07:25:51;7.73;;;3.97;;
13238;SDS011;6686;51.292;4.166;2023-04-24T07:28:37;9.87;;;3.57;;
13238;SDS011;6686;51.292;4.166;2023-04-24T07:31:23;6.90;;;3.23;;
13238;SDS011;6686;51.292;4.166;2023-04-24T07:34:09;10.95;;;4.30;;
13238;SDS011;6686;51.292;4.166;2023-04-24T07:36:55;14.97;;;4.60;;
13238;SDS011;6686;51.292;4.166;2023-04-24T07:39:41;8.63;;;4.20;;
13238;SDS011;6686;51.292;4.166;2023-04-24T07:42:27;8.50;;;3.60;;
13238;SDS011;6686;51.292;4.166;2023-04-24T07:45:12;13.60;;;4.30;;
13238;SDS011;6686;51.292;4.166;2023-04-24T07:47:58;11.77;;;4.20;;
13238;SDS011;6686;51.292;4.166;2023-04-24T07:50:44;10.47;;;3.87;;
13238;SDS011;6686;51.292;4.166;2023-04-24T07:53:30;11.80;;;4.03;;
13238;SDS011;6686;51.292;4.166;2023-04-24T07:56:15;8.53;;;4.17;;
13238;SDS011;6686;51.292;4.166;2023-04-24T07:59:01;10.27;;;3.70;;
13238;SDS011;6686;51.292;4.166;2023-04-24T08:01:48;12.70;;;4.00;;
13238;SDS011;6686;51.292;4.166;2023-04-24T08:04:34;12.93;;;3.70;;
13238;SDS011;6686;51.292;4.166;2023-04-24T08:07:20;9.20;;;4.07;;
13238;SDS011;6686;51.292;4.166;2023-04-24T08:10:06;14.37;;;4.50;;
13238;SDS011;6686;51.292;4.166;2023-04-24T08:12:52;9.73;;;3.43;;
13238;SDS011;6686;51.292;4.166;2023-04-24T08:15:38;8.13;;;3.70;;
13238;SDS011;6686;51.292;4.166;2023-04-24T08:18:24;12.27;;;3.27;;
13238;SDS011;6686;51.292;4.166;2023-04-24T08:21:09;13.00;;;4.27;;
13238;SDS011;6686;51.292;4.166;2023-04-24T08:23:55;10.13;;;3.77;;
13238;SDS011;6686;51.292;4.166;2023-04-24T08:26:41;10.23;;;3.27;;
13238;SDS011;6686;51.292;4.166;2023-04-24T08:29:27;11.17;;;3.03;;
13238;SDS011;6686;51.292;4.166;2023-04-24T08:32:13;9.23;;;3.53;;
13238;SDS011;6686;51.292;4.166;2023-04-24T08:34:58;11.93;;;3.60;;
13238;SDS011;6686;51.292;4.166;2023-04-24T08:37:45;11.45;;;3.87;;
13238;SDS011;6686;51.292;4.166;2023-04-24T08:40:32;5.90;;;2.93;;
13238;SDS011;6686;51.292;4.166;2023-04-24T08:43:17;8.20;;;2.47;;
13238;SDS011;6686;51.292;4.166;2023-04-24T08:46:03;8.73;;;2.83;;
13238;SDS011;6686;51.292;4.166;2023-04-24T08:48:49;11.73;;;3.23;;
13238;SDS011;6686;51.292;4.166;2023-04-24T08:51:36;8.03;;;3.27;;
13238;SDS011;6686;51.292;4.166;2023-04-24T08:54:22;7.97;;;2.43;;
13238;SDS011;6686;51.292;4.166;2023-04-24T08:57:08;12.27;;;3.33;;
13238;SDS011;6686;51.292;4.166;2023-04-24T08:59:54;9.17;;;2.90;;
13238;SDS011;6686;51.292;4.166;2023-04-24T09:02:41;7.33;;;2.87;;
13238;SDS011;6686;51.292;4.166;2023-04-24T09:05:26;5.30;;;2.60;;
13238;SDS011;6686;51.292;4.166;2023-04-24T09:08:12;6.17;;;2.30;;
13238;SDS011;6686;51.292;4.166;2023-04-24T09:10:58;6.17;;;2.20;;
13238;SDS011;6686;51.292;4.166;2023-04-24T09:13:44;7.27;;;2.27;;
13238;SDS011;6686;51.292;4.166;2023-04-24T09:16:30;6.57;;;2.33;;
13238;SDS011;6686;51.292;4.166;2023-04-24T09:19:16;7.70;;;2.60;;
13238;SDS011;6686;51.292;4.166;2023-04-24T09:22:05;6.55;;;2.67;;
13238;SDS011;6686;51.292;4.166;2023-04-24T09:24:59;5.30;;;2.67;;
13238;SDS011;6686;51.292;4.166;2023-04-24T09:27:36;10.13;;;2.70;;
13238;SDS011;6686;51.292;4.166;2023-04-24T09:30:23;7.63;;;2.63;;
13238;SDS011;6686;51.292;4.166;2023-04-24T09:33:12;7.93;;;2.57;;
13238;SDS011;6686;51.292;4.166;2023-04-24T09:35:58;9.20;;;2.80;;
13238;SDS011;6686;51.292;4.166;2023-04-24T09:38:43;10.17;;;3.43;;
13238;SDS011;6686;51.292;4.166;2023-04-24T09:41:29;6.03;;;3.00;;
13238;SDS011;6686;51.292;4.166;2023-04-24T09:44:16;7.68;;;3.03;;
13238;SDS011;6686;51.292;4.166;2023-04-24T09:47:01;6.47;;;3.50;;
13238;SDS011;6686;51.292;4.166;2023-04-24T09:49:47;8.03;;;2.67;;
13238;SDS011;6686;51.292;4.166;2023-04-24T09:55:09;4.87;;;2.80;;
13238;SDS011;6686;51.292;4.166;2023-04-24T09:57:55;6.00;;;2.10;;
13238;SDS011;6686;51.292;4.166;2023-04-24T10:00:41;4.03;;;2.03;;
13238;SDS011;6686;51.292;4.166;2023-04-24T10:03:29;8.20;;;2.37;;
13238;SDS011;6686;51.292;4.166;2023-04-24T10:06:15;4.73;;;2.10;;
13238;SDS011;6686;51.292;4.166;2023-04-24T10:09:01;10.63;;;2.27;;
13238;SDS011;6686;51.292;4.166;2023-04-24T10:11:48;5.23;;;2.10;;
13238;SDS011;6686;51.292;4.166;2023-04-24T10:14:33;5.33;;;2.13;;
13238;SDS011;6686;51.292;4.166;2023-04-24T10:17:19;5.17;;;1.97;;
13238;SDS011;6686;51.292;4.166;2023-04-24T10:20:05;3.23;;;2.00;;
13238;SDS011;6686;51.292;4.166;2023-04-24T10:22:52;7.10;;;2.00;;
13238;SDS011;6686;51.292;4.166;2023-04-24T10:25:36;4.47;;;1.87;;
13238;SDS011;6686;51.292;4.166;2023-04-24T10:28:22;6.03;;;2.00;;
13238;SDS011;6686;51.292;4.166;2023-04-24T10:31:08;5.32;;;2.10;;
13238;SDS011;6686;51.292;4.166;2023-04-24T10:33:54;3.47;;;2.17;;
13238;SDS011;6686;51.292;4.166;2023-04-24T10:36:40;5.47;;;2.00;;
13238;SDS011;6686;51.292;4.166;2023-04-24T10:39:25;3.03;;;1.93;;
13238;SDS011;6686;51.292;4.166;2023-04-24T10:42:15;3.90;;;1.60;;
13238;SDS011;6686;51.292;4.166;2023-04-24T10:45:04;3.67;;;1.77;;
13238;SDS011;6686;51.292;4.166;2023-04-24T10:50:45;2.60;;;1.23;;
13238;SDS011;6686;51.292;4.166;2023-04-24T10:53:31;5.13;;;1.60;;
13238;SDS011;6686;51.292;4.166;2023-04-24T10:56:17;3.57;;;1.40;;
13238;SDS011;6686;51.292;4.166;2023-04-24T10:59:03;2.63;;;1.50;;
13238;SDS011;6686;51.292;4.166;2023-04-24T11:01:52;2.03;;;1.50;;
13238;SDS011;6686;51.292;4.166;2023-04-24T11:04:34;1.97;;;1.40;;
13238;SDS011;6686;51.292;4.166;2023-04-24T11:07:20;3.90;;;1.63;;
13238;SDS011;6686;51.292;4.166;2023-04-24T11:10:06;5.87;;;1.83;;
13238;SDS011;6686;51.292;4.166;2023-04-24T11:12:52;2.00;;;1.23;;
13238;SDS011;6686;51.292;4.166;2023-04-24T11:15:38;5.27;;;2.00;;
13238;SDS011;6686;51.292;4.166;2023-04-24T11:18:24;3.40;;;1.50;;
13238;SDS011;6686;51.292;4.166;2023-04-24T11:21:11;6.47;;;2.30;;
13238;SDS011;6686;51.292;4.166;2023-04-24T11:24:20;4.80;;;1.73;;
13238;SDS011;6686;51.292;4.166;2023-04-24T11:26:45;2.97;;;1.50;;
13238;SDS011;6686;51.292;4.166;2023-04-24T11:29:48;5.00;;;1.90;;
13238;SDS011;6686;51.292;4.166;2023-04-24T11:32:42;5.30;;;1.87;;
13238;SDS011;6686;51.292;4.166;2023-04-24T11:35:27;3.13;;;1.60;;
13238;SDS011;6686;51.292;4.166;2023-04-24T11:38:17;5.50;;;2.07;;
13238;SDS011;6686;51.292;4.166;2023-04-24T11:41:02;8.93;;;1.83;;
13238;SDS011;6686;51.292;4.166;2023-04-24T11:43:48;3.67;;;1.73;;
13238;SDS011;6686;51.292;4.166;2023-04-24T11:46:35;9.10;;;2.50;;
13238;SDS011;6686;51.292;4.166;2023-04-24T11:49:21;6.65;;;2.00;;
13238;SDS011;6686;51.292;4.166;2023-04-24T11:52:07;3.93;;;1.47;;
13238;SDS011;6686;51.292;4.166;2023-04-24T11:54:52;4.10;;;1.50;;
13238;SDS011;6686;51.292;4.166;2023-04-24T11:57:38;4.20;;;1.97;;
13238;SDS011;6686;51.292;4.166;2023-04-24T12:00:28;3.33;;;1.70;;
13238;SDS011;6686;51.292;4.166;2023-04-24T12:03:13;2.53;;;1.57;;
13238;SDS011;6686;51.292;4.166;2023-04-24T12:06:09;5.53;;;2.10;;
13238;SDS011;6686;51.292;4.166;2023-04-24T12:08:52;6.07;;;2.37;;
13238;SDS011;6686;51.292;4.166;2023-04-24T12:11:37;3.40;;;1.90;;
13238;SDS011;6686;51.292;4.166;2023-04-24T12:14:23;4.90;;;2.23;;
13238;SDS011;6686;51.292;4.166;2023-04-24T12:17:09;4.67;;;2.20;;
13238;SDS011;6686;51.292;4.166;2023-04-24T12:19:59;2.63;;;1.80;;
13238;SDS011;6686;51.292;4.166;2023-04-24T12:22:47;3.37;;;2.00;;
13238;SDS011;6686;51.292;4.166;2023-04-24T12:25:35;5.17;;;2.63;;
13238;SDS011;6686;51.292;4.166;2023-04-24T12:28:22;4.33;;;2.47;;
13238;SDS011;6686;51.292;4.166;2023-04-24T12:31:07;3.97;;;1.60;;
13238;SDS011;6686;51.292;4.166;2023-04-24T12:33:54;5.00;;;2.05;;
13238;SDS011;6686;51.292;4.166;2023-04-24T12:36:39;4.50;;;1.93;;
13238;SDS011;6686;51.292;4.166;2023-04-24T12:39:26;2.07;;;1.70;;
13238;SDS011;6686;51.292;4.166;2023-04-24T12:42:12;3.73;;;1.80;;
13238;SDS011;6686;51.292;4.166;2023-04-24T12:44:58;4.35;;;1.90;;
13238;SDS011;6686;51.292;4.166;2023-04-24T12:47:44;5.27;;;1.80;;
13238;SDS011;6686;51.292;4.166;2023-04-24T12:50:29;2.53;;;1.83;;
13238;SDS011;6686;51.292;4.166;2023-04-24T12:53:15;4.70;;;1.60;;
13238;SDS011;6686;51.292;4.166;2023-04-24T12:56:01;2.60;;;1.87;;
13238;SDS011;6686;51.292;4.166;2023-04-24T12:58:47;4.93;;;1.60;;
13238;SDS011;6686;51.292;4.166;2023-04-24T13:01:33;2.37;;;1.77;;
13238;SDS011;6686;51.292;4.166;2023-04-24T13:04:19;4.63;;;2.33;;
13238;SDS011;6686;51.292;4.166;2023-04-24T13:07:05;3.17;;;1.70;;
13238;SDS011;6686;51.292;4.166;2023-04-24T13:09:51;3.67;;;2.07;;
13238;SDS011;6686;51.292;4.166;2023-04-24T13:12:36;3.00;;;1.60;;
13238;SDS011;6686;51.292;4.166;2023-04-24T13:15:22;7.33;;;2.10;;
13238;SDS011;6686;51.292;4.166;2023-04-24T13:18:08;2.73;;;1.70;;
13238;SDS011;6686;51.292;4.166;2023-04-24T13:20:54;4.03;;;1.80;;
13238;SDS011;6686;51.292;4.166;2023-04-24T13:23:40;2.67;;;1.70;;
13238;SDS011;6686;51.292;4.166;2023-04-24T13:26:26;3.67;;;1.83;;
13238;SDS011;6686;51.292;4.166;2023-04-24T13:29:12;2.50;;;1.80;;
13238;SDS011;6686;51.292;4.166;2023-04-24T13:31:58;3.37;;;1.83;;
13238;SDS011;6686;51.292;4.166;2023-04-24T13:34:47;3.70;;;1.90;;
13238;SDS011;6686;51.292;4.166;2023-04-24T13:37:33;5.47;;;1.90;;
13238;SDS011;6686;51.292;4.166;2023-04-24T13:40:19;3.67;;;1.87;;
13238;SDS011;6686;51.292;4.166;2023-04-24T13:43:05;3.40;;;1.70;;
13238;SDS011;6686;51.292;4.166;2023-04-24T13:45:50;5.47;;;1.83;;
13238;SDS011;6686;51.292;4.166;2023-04-24T13:48:37;7.20;;;2.37;;
13238;SDS011;6686;51.292;4.166;2023-04-24T13:51:23;4.87;;;2.20;;
13238;SDS011;6686;51.292;4.166;2023-04-24T13:54:08;3.53;;;1.93;;
13238;SDS011;6686;51.292;4.166;2023-04-24T13:56:55;4.10;;;1.80;;
13238;SDS011;6686;51.292;4.166;2023-04-24T13:59:40;4.50;;;1.93;;
13238;SDS011;6686;51.292;4.166;2023-04-24T14:02:27;3.97;;;2.27;;
13238;SDS011;6686;51.292;4.166;2023-04-24T14:05:13;4.33;;;2.07;;
13238;SDS011;6686;51.292;4.166;2023-04-24T14:07:58;3.60;;;2.00;;
13238;SDS011;6686;51.292;4.166;2023-04-24T14:10:43;2.63;;;1.93;;
13238;SDS011;6686;51.292;4.166;2023-04-24T14:13:29;3.57;;;1.90;;
13238;SDS011;6686;51.292;4.166;2023-04-24T14:16:15;4.17;;;2.20;;
13238;SDS011;6686;51.292;4.166;2023-04-24T14:19:01;6.67;;;2.57;;
13238;SDS011;6686;51.292;4.166;2023-04-24T14:21:47;5.73;;;2.37;;
13238;SDS011;6686;51.292;4.166;2023-04-24T14:24:32;5.27;;;2.37;;
13238;SDS011;6686;51.292;4.166;2023-04-24T14:27:18;4.43;;;2.20;;
13238;SDS011;6686;51.292;4.166;2023-04-24T14:30:04;3.03;;;1.83;;
13238;SDS011;6686;51.292;4.166;2023-04-24T14:32:50;2.53;;;1.73;;
13238;SDS011;6686;51.292;4.166;2023-04-24T14:35:36;4.63;;;1.43;;
13238;SDS011;6686;51.292;4.166;2023-04-24T14:38:22;3.03;;;1.60;;
13238;SDS011;6686;51.292;4.166;2023-04-24T14:41:08;1.73;;;1.47;;
13238;SDS011;6686;51.292;4.166;2023-04-24T14:43:54;4.23;;;2.50;;
13238;SDS011;6686;51.292;4.166;2023-04-24T14:46:40;2.97;;;2.00;;
13238;SDS011;6686;51.292;4.166;2023-04-24T14:49:26;2.62;;;1.70;;
13238;SDS011;6686;51.292;4.166;2023-04-24T14:52:11;5.03;;;1.70;;
13238;SDS011;6686;51.292;4.166;2023-04-24T14:54:57;4.57;;;2.00;;
13238;SDS011;6686;51.292;4.166;2023-04-24T14:57:43;2.37;;;2.17;;
13238;SDS011;6686;51.292;4.166;2023-04-24T15:00:29;2.90;;;2.10;;
13238;SDS011;6686;51.292;4.166;2023-04-24T15:03:15;4.00;;;2.20;;
13238;SDS011;6686;51.292;4.166;2023-04-24T15:06:01;3.17;;;2.00;;
13238;SDS011;6686;51.292;4.166;2023-04-24T15:08:47;4.50;;;2.10;;
13238;SDS011;6686;51.292;4.166;2023-04-24T15:11:33;4.03;;;1.98;;
13238;SDS011;6686;51.292;4.166;2023-04-24T15:14:18;3.70;;;2.00;;
13238;SDS011;6686;51.292;4.166;2023-04-24T15:17:05;2.33;;;1.80;;
13238;SDS011;6686;51.292;4.166;2023-04-24T15:19:51;2.53;;;1.90;;
13238;SDS011;6686;51.292;4.166;2023-04-24T15:22:41;5.80;;;2.20;;
13238;SDS011;6686;51.292;4.166;2023-04-24T15:25:26;3.37;;;2.50;;
13238;SDS011;6686;51.292;4.166;2023-04-24T15:28:12;3.27;;;2.30;;
13238;SDS011;6686;51.292;4.166;2023-04-24T15:30:58;5.17;;;3.07;;
13238;SDS011;6686;51.292;4.166;2023-04-24T15:33:44;7.63;;;3.30;;
13238;SDS011;6686;51.292;4.166;2023-04-24T15:36:31;6.57;;;2.90;;
13238;SDS011;6686;51.292;4.166;2023-04-24T15:39:16;6.83;;;3.33;;
13238;SDS011;6686;51.292;4.166;2023-04-24T15:42:02;5.60;;;2.67;;
13238;SDS011;6686;51.292;4.166;2023-04-24T15:44:48;5.60;;;2.90;;
13238;SDS011;6686;51.292;4.166;2023-04-24T15:47:34;8.45;;;3.30;;
13238;SDS011;6686;51.292;4.166;2023-04-24T15:50:20;8.73;;;3.07;;
13238;SDS011;6686;51.292;4.166;2023-04-24T15:53:06;7.55;;;4.07;;
13238;SDS011;6686;51.292;4.166;2023-04-24T15:55:52;5.53;;;2.87;;
13238;SDS011;6686;51.292;4.166;2023-04-24T15:58:39;5.67;;;2.90;;
13238;SDS011;6686;51.292;4.166;2023-04-24T16:01:25;4.00;;;2.60;;
13238;SDS011;6686;51.292;4.166;2023-04-24T16:04:11;7.23;;;2.97;;
13238;SDS011;6686;51.292;4.166;2023-04-24T16:06:57;9.60;;;3.33;;
13238;SDS011;6686;51.292;4.166;2023-04-24T16:09:43;5.23;;;3.17;;
13238;SDS011;6686;51.292;4.166;2023-04-24T16:12:28;5.63;;;2.87;;
13238;SDS011;6686;51.292;4.166;2023-04-24T16:15:14;7.70;;;3.00;;
13238;SDS011;6686;51.292;4.166;2023-04-24T16:18:00;5.57;;;2.97;;
13238;SDS011;6686;51.292;4.166;2023-04-24T16:20:46;5.50;;;2.80;;
13238;SDS011;6686;51.292;4.166;2023-04-24T16:23:31;6.07;;;3.00;;
13238;SDS011;6686;51.292;4.166;2023-04-24T16:26:17;3.93;;;2.60;;
13238;SDS011;6686;51.292;4.166;2023-04-24T16:29:03;5.47;;;2.70;;
13238;SDS011;6686;51.292;4.166;2023-04-24T16:31:49;6.30;;;2.40;;
13238;SDS011;6686;51.292;4.166;2023-04-24T16:34:35;6.63;;;3.10;;
13238;SDS011;6686;51.292;4.166;2023-04-24T16:37:22;7.10;;;3.28;;
13238;SDS011;6686;51.292;4.166;2023-04-24T16:40:08;7.37;;;3.03;;
13238;SDS011;6686;51.292;4.166;2023-04-24T16:42:56;6.73;;;4.20;;
13238;SDS011;6686;51.292;4.166;2023-04-24T16:45:43;4.80;;;2.90;;
13238;SDS011;6686;51.292;4.166;2023-04-24T16:48:28;5.10;;;2.60;;
13238;SDS011;6686;51.292;4.166;2023-04-24T16:51:15;5.95;;;3.08;;